createdAt,value
2018-09-02T00:04:24.899Z,67.40
2018-09-02T00:06:53.158Z,67.50
2018-09-02T00:09:21.319Z,67.60
2018-09-02T00:11:49.531Z,67.60
2018-09-02T00:14:17.707Z,67.50
2018-09-02T00:16:45.908Z,67.70
2018-09-02T00:19:14.088Z,67.90
2018-09-02T00:21:42.319Z,67.90
2018-09-02T00:24:10.475Z,68.10
2018-09-02T00:26:38.662Z,68.30
2018-09-02T00:29:13.379Z,68.10
2018-09-02T00:31:41.565Z,68.30
2018-09-02T00:34:09.793Z,68.30
2018-09-02T00:36:38.053Z,68.10
2018-09-02T00:39:07.997Z,68.10
2018-09-02T00:41:36.678Z,68.20
2018-09-02T00:44:04.850Z,68.30
2018-09-02T00:46:33.062Z,68.40
2018-09-02T00:49:01.294Z,68.50
2018-09-02T00:51:29.581Z,69.20
2018-09-02T00:53:57.740Z,68.50
2018-09-02T00:56:25.934Z,68.60
2018-09-02T00:59:00.252Z,68.60
2018-09-02T01:01:28.480Z,69.40
2018-09-02T01:03:56.675Z,68.80
2018-09-02T01:06:24.939Z,68.80
2018-09-02T01:08:53.123Z,68.70
2018-09-02T01:11:21.370Z,68.70
2018-09-02T01:13:49.547Z,68.80
2018-09-02T01:16:17.749Z,68.80
2018-09-02T01:18:46.011Z,68.70
2018-09-02T01:21:22.948Z,68.90
2018-09-02T01:23:51.319Z,69.00
2018-09-02T01:26:19.499Z,69.20
2018-09-02T01:28:51.292Z,69.50
2018-09-02T01:31:19.486Z,69.60
2018-09-02T01:33:47.723Z,69.60
2018-09-02T01:36:15.904Z,69.90
2018-09-02T01:38:44.177Z,69.90
2018-09-02T01:41:12.589Z,70.00
2018-09-02T01:43:49.681Z,70.00
2018-09-02T01:46:17.880Z,70.00
2018-09-02T01:48:46.186Z,70.20
2018-09-02T01:51:14.388Z,70.30
2018-09-02T01:53:42.742Z,70.30
2018-09-02T01:56:10.954Z,70.20
2018-09-02T01:58:39.536Z,70.20
2018-09-02T02:01:28.720Z,70.20
2018-09-02T02:03:56.952Z,70.30
2018-09-02T02:06:25.129Z,70.20
2018-09-02T02:08:53.402Z,70.10
2018-09-02T02:11:21.593Z,70.20
2018-09-02T02:13:49.810Z,70.50
2018-09-02T02:16:17.985Z,70.50
2018-09-02T02:18:46.188Z,70.60
2018-09-02T02:21:14.381Z,70.60
2018-09-02T02:23:42.719Z,70.60
2018-09-02T02:26:10.884Z,70.60
2018-09-02T02:28:39.093Z,70.60
2018-09-02T02:31:07.334Z,70.80
2018-09-02T02:33:35.534Z,70.70
2018-09-02T02:36:03.917Z,70.70
2018-09-02T02:38:32.145Z,70.80
2018-09-02T02:41:00.319Z,70.80
2018-09-02T02:43:29.060Z,70.90
2018-09-02T02:45:57.263Z,70.90
2018-09-02T02:48:25.450Z,71.10
2018-09-02T02:50:53.729Z,71.10
2018-09-02T02:53:21.910Z,71.10
2018-09-02T02:55:50.123Z,71.10
2018-09-02T02:58:18.298Z,71.10
2018-09-02T03:00:46.661Z,71.10
2018-09-02T03:03:14.855Z,71.30
2018-09-02T03:05:43.024Z,71.30
2018-09-02T03:08:11.233Z,71.40
2018-09-02T03:10:39.503Z,71.50
2018-09-02T03:13:07.655Z,71.50
2018-09-02T03:15:35.933Z,71.30
2018-09-02T03:18:04.119Z,72.10
2018-09-02T03:20:32.325Z,71.50
2018-09-02T03:23:00.536Z,71.40
2018-09-02T03:25:29.009Z,71.40
2018-09-02T03:28:02.079Z,71.50
2018-09-02T03:36:11.289Z,71.70
2018-09-02T03:38:39.502Z,71.60
2018-09-02T03:41:07.836Z,71.70
2018-09-02T03:46:40.953Z,71.70
2018-09-02T03:49:09.550Z,71.80
2018-09-02T03:51:37.823Z,72.00
2018-09-02T03:54:06.396Z,72.80
2018-09-02T03:56:34.685Z,71.90
2018-09-02T03:59:03.328Z,72.50
2018-09-02T04:01:41.340Z,72.50
2018-09-02T04:04:09.548Z,72.50
2018-09-02T04:06:38.094Z,72.30
2018-09-02T04:09:08.340Z,72.40
2018-09-02T04:23:07.564Z,72.20
2018-09-02T04:25:35.872Z,72.40
2018-09-02T04:33:45.169Z,72.60
2018-09-02T04:36:13.409Z,72.60
2018-09-02T04:38:42.063Z,72.60
2018-09-02T04:41:10.745Z,72.70
2018-09-02T04:43:39.031Z,72.80
2018-09-02T04:46:07.509Z,72.80
2018-09-02T04:48:35.908Z,72.80
2018-09-02T04:51:04.183Z,72.70
2018-09-02T04:53:44.199Z,72.80
2018-09-02T04:56:12.490Z,72.90
2018-09-02T04:58:40.817Z,72.90
2018-09-02T05:01:09.192Z,73.00
2018-09-02T05:03:37.505Z,73.00
2018-09-02T05:11:47.106Z,73.20
2018-09-02T05:14:15.866Z,73.20
2018-09-02T05:16:44.393Z,73.30
2018-09-02T05:19:12.681Z,73.60
2018-09-02T05:21:42.259Z,73.70
2018-09-02T05:24:17.214Z,73.70
2018-09-02T05:26:45.629Z,73.80
2018-09-02T05:29:18.848Z,73.80
2018-09-02T05:31:47.510Z,73.60
2018-09-02T05:34:15.695Z,73.60
2018-09-02T05:36:43.876Z,73.50
2018-09-02T05:39:12.193Z,73.70
2018-09-02T05:42:05.735Z,73.70
2018-09-02T05:44:36.147Z,73.70
2018-09-02T05:47:04.639Z,73.80
2018-09-02T05:49:32.938Z,73.70
2018-09-02T05:52:01.303Z,73.70
2018-09-02T05:54:29.830Z,74.00
2018-09-02T05:56:58.719Z,74.00
2018-09-02T06:02:17.792Z,73.90
2018-09-02T06:04:46.605Z,73.90
2018-09-02T06:07:14.905Z,73.20
2018-09-02T06:09:43.620Z,72.90
2018-09-02T06:12:12.209Z,73.10
2018-09-02T06:14:40.597Z,73.20
2018-09-02T06:17:10.478Z,73.20
2018-09-02T06:19:38.750Z,73.20
2018-09-02T06:22:07.113Z,73.20
2018-09-02T06:24:35.362Z,73.20
2018-09-02T06:27:03.569Z,73.20
2018-09-02T06:29:31.812Z,73.10
2018-09-02T06:32:00.062Z,73.10
2018-09-02T06:34:28.327Z,73.00
2018-09-02T06:36:57.320Z,72.90
2018-09-02T06:39:25.658Z,72.80
2018-09-02T06:41:56.445Z,73.50
2018-09-02T06:44:24.671Z,72.70
2018-09-02T06:46:52.945Z,72.60
2018-09-02T06:49:21.241Z,72.40
2018-09-02T06:51:49.587Z,72.30
2018-09-02T06:54:17.810Z,72.30
2018-09-02T06:56:46.291Z,72.50
2018-09-02T06:59:14.660Z,72.20
2018-09-02T07:01:43.930Z,72.10
2018-09-02T07:04:12.126Z,72.10
2018-09-02T07:06:40.511Z,72.00
2018-09-02T07:09:08.877Z,72.00
2018-09-02T07:11:37.249Z,72.00
2018-09-02T07:14:15.412Z,71.90
2018-09-02T07:16:47.395Z,72.00
2018-09-02T07:19:15.693Z,71.90
2018-09-02T07:21:43.899Z,71.80
2018-09-02T07:24:13.090Z,71.70
2018-09-02T07:26:41.266Z,72.40
2018-09-02T07:29:09.515Z,71.50
2018-09-02T07:31:37.773Z,71.50
2018-09-02T07:34:05.957Z,71.50
2018-09-02T07:36:34.168Z,71.40
2018-09-02T07:39:02.338Z,71.40
2018-09-02T07:41:30.874Z,71.50
2018-09-02T07:43:59.088Z,71.40
2018-09-02T07:46:27.306Z,71.30
2018-09-02T07:48:55.507Z,71.10
2018-09-02T07:51:23.699Z,70.90
2018-09-02T07:53:51.917Z,70.80
2018-09-02T07:56:20.125Z,70.90
2018-09-02T07:58:48.429Z,70.80
2018-09-02T08:01:24.441Z,70.70
2018-09-02T08:03:52.706Z,70.70
2018-09-02T08:06:30.603Z,70.60
2018-09-02T08:08:58.897Z,70.60
2018-09-02T08:11:27.110Z,70.50
2018-09-02T08:13:55.325Z,70.40
2018-09-02T08:16:23.548Z,70.20
2018-09-02T08:18:55.773Z,70.10
2018-09-02T08:21:23.977Z,69.90
2018-09-02T08:23:52.246Z,69.80
2018-09-02T08:26:20.509Z,69.80
2018-09-02T08:28:48.982Z,69.60
2018-09-02T08:31:17.185Z,69.50
2018-09-02T08:33:45.403Z,69.50
2018-09-02T08:36:13.645Z,69.30
2018-09-02T08:38:41.976Z,69.10
2018-09-02T08:41:10.146Z,69.00
2018-09-02T08:43:38.541Z,68.90
2018-09-02T08:46:06.737Z,68.80
2018-09-02T08:48:34.996Z,69.50
2018-09-02T08:51:03.197Z,68.60
2018-09-02T08:53:31.486Z,68.60
2018-09-02T08:55:59.752Z,68.50
2018-09-02T08:58:28.082Z,68.30
2018-09-02T09:01:02.429Z,68.00
2018-09-02T09:03:30.662Z,68.00
2018-09-02T09:05:59.289Z,67.80
2018-09-02T09:08:27.828Z,67.60
2018-09-02T09:11:02.082Z,67.50
2018-09-02T09:13:30.586Z,67.50
2018-09-02T09:15:58.809Z,67.50
2018-09-02T09:18:27.050Z,67.50
2018-09-02T09:20:55.257Z,67.40
2018-09-02T09:23:23.497Z,67.10
2018-09-02T09:25:51.714Z,66.70
2018-09-02T09:28:20.045Z,66.60
2018-09-02T09:30:48.425Z,66.60
2018-09-02T09:33:16.621Z,66.30
2018-09-02T09:35:44.867Z,66.10
2018-09-02T09:38:13.049Z,65.80
2018-09-02T09:40:41.264Z,65.70
2018-09-02T09:43:09.637Z,65.70
2018-09-02T09:45:37.837Z,65.70
2018-09-02T09:48:06.453Z,65.50
2018-09-02T09:50:34.624Z,65.40
2018-09-02T09:53:02.815Z,65.50
2018-09-02T09:55:31.083Z,66.10
2018-09-02T09:57:59.309Z,65.20
2018-09-02T10:00:32.976Z,65.60
2018-09-02T10:03:02.121Z,65.60
2018-09-02T10:05:30.298Z,65.30
2018-09-02T10:07:58.553Z,65.10
2018-09-02T10:10:26.809Z,65.20
2018-09-02T10:12:54.982Z,65.50
2018-09-02T10:15:23.185Z,65.40
2018-09-02T10:17:51.586Z,66.40
2018-09-02T10:20:19.831Z,65.40
2018-09-02T10:22:48.060Z,65.00
2018-09-02T10:25:16.275Z,64.50
2018-09-02T10:27:44.571Z,64.60
2018-09-02T10:30:12.792Z,64.70
2018-09-02T10:32:41.167Z,64.90
2018-09-02T10:35:09.356Z,64.50
2018-09-02T10:37:37.566Z,65.40
2018-09-02T10:40:06.201Z,64.70
2018-09-02T10:42:34.407Z,65.00
2018-09-02T10:45:03.050Z,65.00
2018-09-02T10:47:31.225Z,64.90
2018-09-02T10:49:59.575Z,65.10
2018-09-02T10:52:27.739Z,64.80
2018-09-02T10:54:55.953Z,64.60
2018-09-02T10:57:24.137Z,64.30
2018-09-02T10:59:52.452Z,64.00
2018-09-02T11:02:20.685Z,64.20
2018-09-02T11:04:48.873Z,64.10
2018-09-02T11:07:17.075Z,63.70
2018-09-02T11:09:45.314Z,63.50
2018-09-02T11:12:13.509Z,63.50
2018-09-02T11:14:41.759Z,63.80
2018-09-02T11:17:10.153Z,64.00
2018-09-02T11:19:38.440Z,63.70
2018-09-02T11:22:06.666Z,63.00
2018-09-02T11:24:40.070Z,62.60
2018-09-02T11:27:08.599Z,62.20
2018-09-02T11:29:36.907Z,62.10
2018-09-02T11:32:05.230Z,61.60
2018-09-02T11:34:33.428Z,61.80
2018-09-02T11:37:01.641Z,61.90
2018-09-02T11:39:29.866Z,61.10
2018-09-02T11:42:04.228Z,60.50
2018-09-02T11:44:32.733Z,60.80
2018-09-02T11:47:01.131Z,60.80
2018-09-02T11:49:29.277Z,60.40
2018-09-02T11:52:03.856Z,60.30
2018-09-02T11:54:32.065Z,61.10
2018-09-02T11:57:16.696Z,61.00
2018-09-02T11:59:45.002Z,60.10
2018-09-02T12:02:13.410Z,60.70
2018-09-02T12:04:41.776Z,60.50
2018-09-02T12:07:10.067Z,60.50
2018-09-02T12:09:38.257Z,60.10
2018-09-02T12:12:06.518Z,60.30
2018-09-02T12:14:34.798Z,58.90
2018-09-02T12:17:03.110Z,59.30
2018-09-02T12:19:31.317Z,59.40
2018-09-02T12:21:59.561Z,59.00
2018-09-02T12:24:27.794Z,58.70
2018-09-02T12:26:56.082Z,60.00
2018-09-02T12:29:24.306Z,59.00
2018-09-02T12:31:52.521Z,59.10
2018-09-02T12:34:20.759Z,59.30
2018-09-02T12:36:49.164Z,59.60
2018-09-02T12:39:17.350Z,59.30
2018-09-02T12:41:46.164Z,59.60
2018-09-02T12:44:14.366Z,59.70
2018-09-02T12:46:42.562Z,59.90
2018-09-02T12:49:10.780Z,59.80
2018-09-02T12:51:39.026Z,59.80
2018-09-02T12:54:07.636Z,59.70
2018-09-02T12:56:35.839Z,59.40
2018-09-02T12:59:04.110Z,59.30
2018-09-02T13:01:32.333Z,58.50
2018-09-02T13:04:00.526Z,58.30
2018-09-02T13:06:28.744Z,57.50
2018-09-02T13:08:56.980Z,57.90
2018-09-02T13:11:25.174Z,58.00
2018-09-02T13:13:53.513Z,58.20
2018-09-02T13:16:21.730Z,58.40
2018-09-02T13:18:58.918Z,58.60
2018-09-02T13:21:27.127Z,58.40
2018-09-02T13:23:55.400Z,57.90
2018-09-02T13:26:23.603Z,58.10
2018-09-02T13:28:51.812Z,58.40
2018-09-02T13:31:20.065Z,58.10
2018-09-02T13:33:48.298Z,57.20
2018-09-02T13:36:16.528Z,58.10
2018-09-02T13:38:44.761Z,58.10
2018-09-02T13:41:12.961Z,58.20
2018-09-02T13:43:41.444Z,57.90
2018-09-02T13:46:09.663Z,57.80
2018-09-02T13:48:37.898Z,58.00
2018-09-02T13:51:21.190Z,58.50
2018-09-02T13:53:54.097Z,56.60
2018-09-02T13:56:22.545Z,56.80
2018-09-02T13:58:57.915Z,57.00
2018-09-02T14:01:26.252Z,56.90
2018-09-02T14:03:54.721Z,57.00
2018-09-02T14:06:23.198Z,56.90
2018-09-02T14:11:42.445Z,57.60
2018-09-02T14:14:11.016Z,57.70
2018-09-02T14:16:39.659Z,57.70
2018-09-02T14:19:09.568Z,57.70
2018-09-02T14:21:37.832Z,57.30
2018-09-02T14:24:06.587Z,57.10
2018-09-02T14:26:35.827Z,56.70
2018-09-02T14:29:04.572Z,56.50
2018-09-02T14:31:36.919Z,56.90
2018-09-02T14:34:05.371Z,57.80
2018-09-02T14:36:33.693Z,58.60
2018-09-02T15:07:31.674Z,56.70
2018-09-02T15:10:00.218Z,55.70
2018-09-02T15:12:28.669Z,56.10
2018-09-02T15:14:57.635Z,56.10
2018-09-02T15:17:26.200Z,56.70
2018-09-02T15:23:03.335Z,57.00
2018-09-02T15:25:31.857Z,56.80
2018-09-02T15:28:00.658Z,56.60
2018-09-02T15:30:36.698Z,56.70
2018-09-02T15:33:05.408Z,56.60
2018-09-02T15:35:33.825Z,57.10
2018-09-02T15:38:04.023Z,57.30
2018-09-02T15:49:04.623Z,57.10
2018-09-02T15:51:33.068Z,56.90
2018-09-02T15:54:02.579Z,56.40
2018-09-02T15:56:30.880Z,56.80
2018-09-02T15:58:59.381Z,57.00
2018-09-02T16:01:27.859Z,56.90
2018-09-02T16:03:56.258Z,57.10
2018-09-02T16:06:24.929Z,57.30
2018-09-02T16:08:53.364Z,57.50
2018-09-02T16:11:21.839Z,57.30
2018-09-02T16:13:50.360Z,57.20
2018-09-02T16:16:18.946Z,57.20
2018-09-02T16:18:47.243Z,57.20
2018-09-02T16:21:15.984Z,57.30
2018-09-02T16:23:44.614Z,57.20
2018-09-02T16:26:12.962Z,56.90
2018-09-02T16:28:41.289Z,56.40
2018-09-02T16:31:11.123Z,56.50
2018-09-02T16:33:44.797Z,56.40
2018-09-02T16:36:13.256Z,56.80
2018-09-02T16:38:41.598Z,56.90
2018-09-02T16:41:11.142Z,56.80
2018-09-02T16:43:39.552Z,57.70
2018-09-02T16:54:39.695Z,57.10
2018-09-02T16:57:14.106Z,57.00
2018-09-02T16:59:42.461Z,56.80
2018-09-02T17:02:10.958Z,57.20
2018-09-02T17:04:41.220Z,56.90
2018-09-02T17:07:09.618Z,57.00
2018-09-02T17:09:37.932Z,57.10
2018-09-02T17:29:10.645Z,57.20
2018-09-02T17:31:38.886Z,57.20
2018-09-02T17:34:07.406Z,57.40
2018-09-02T17:36:35.678Z,57.40
2018-09-02T17:39:05.117Z,57.40
2018-09-02T17:41:33.476Z,57.30
2018-09-02T17:44:02.563Z,57.30
2018-09-02T17:46:30.985Z,57.30
2018-09-02T17:48:59.438Z,57.50
2018-09-02T17:51:28.017Z,57.70
2018-09-02T17:53:56.595Z,57.80
2018-09-02T17:56:26.237Z,57.90
2018-09-02T17:58:54.763Z,58.20
2018-09-02T18:01:34.052Z,58.30
2018-09-02T18:04:02.829Z,58.70
2018-09-02T18:06:31.329Z,58.30
2018-09-02T18:09:01.117Z,58.40
2018-09-02T18:11:29.527Z,58.50
2018-09-02T18:13:58.003Z,58.50
2018-09-02T18:16:26.461Z,58.50
2018-09-02T18:18:54.799Z,58.40
2018-09-02T18:21:23.013Z,58.40
2018-09-02T18:23:51.382Z,58.60
2018-09-02T18:26:19.761Z,58.70
2018-09-02T18:28:48.726Z,58.80
2018-09-02T18:31:17.060Z,58.70
2018-09-02T18:33:45.612Z,58.70
2018-09-02T18:36:14.000Z,58.60
2018-09-02T18:38:42.359Z,58.60
2018-09-02T18:41:10.710Z,58.50
2018-09-02T18:43:39.026Z,58.60
2018-09-02T18:46:07.875Z,58.60
2018-09-02T18:48:37.273Z,58.70
2018-09-02T18:51:05.683Z,58.70
2018-09-02T18:53:33.945Z,58.70
2018-09-02T18:56:02.257Z,58.80
2018-09-02T18:58:30.554Z,58.70
2018-09-02T19:01:00.238Z,58.70
2018-09-02T19:03:28.507Z,58.70
2018-09-02T19:05:56.879Z,58.80
2018-09-02T19:08:25.508Z,58.90
2018-09-02T19:10:53.831Z,58.80
2018-09-02T19:36:07.164Z,59.00
2018-09-02T19:38:35.871Z,59.00
2018-09-02T19:41:04.199Z,58.90
2018-09-02T19:43:32.563Z,59.00
2018-09-02T19:46:00.865Z,59.10
2018-09-02T19:48:29.789Z,59.20
2018-09-02T19:50:58.190Z,59.20
2018-09-02T19:53:26.527Z,59.20
2018-09-02T19:55:54.854Z,59.30
2018-09-02T19:58:23.185Z,59.30
2018-09-02T20:00:51.984Z,59.40
2018-09-02T20:20:24.701Z,59.60
2018-09-02T20:22:53.058Z,59.70
2018-09-02T20:25:21.460Z,59.70
2018-09-02T20:27:49.812Z,59.80
2018-09-02T20:30:18.245Z,59.90
2018-09-02T20:32:46.672Z,60.00
2018-09-02T20:35:14.925Z,60.10
2018-09-02T20:37:43.419Z,60.20
2018-09-02T20:40:11.883Z,60.30
2018-09-02T20:42:40.324Z,60.30
2018-09-02T20:45:08.750Z,60.40
2018-09-02T20:47:37.046Z,60.40
2018-09-02T20:50:06.002Z,60.50
2018-09-02T20:52:34.363Z,60.60
2018-09-02T20:55:02.860Z,60.60
2018-09-02T20:57:31.232Z,60.70
2018-09-02T20:59:59.654Z,60.90
2018-09-02T21:08:20.076Z,61.10
2018-09-02T21:10:48.674Z,61.20
2018-09-02T21:13:17.336Z,61.40
2018-09-02T21:15:45.630Z,61.60
2018-09-02T21:18:29.620Z,61.70
2018-09-02T21:20:57.926Z,61.80
2018-09-02T21:23:26.371Z,61.90
2018-09-02T21:25:54.695Z,62.00
2018-09-02T21:28:23.063Z,62.00
2018-09-02T21:30:51.346Z,62.10
2018-09-02T21:33:19.640Z,62.20
2018-09-02T21:36:07.979Z,62.30
2018-09-02T21:38:36.436Z,62.30
2018-09-02T21:41:04.842Z,62.50
2018-09-02T21:43:33.224Z,62.50
2018-09-02T21:46:01.602Z,62.50
2018-09-02T21:48:29.946Z,62.60
2018-09-02T21:50:58.424Z,62.80
2018-09-02T21:53:26.801Z,62.60
2018-09-02T21:55:55.268Z,62.70
2018-09-02T21:58:23.588Z,62.70
2018-09-02T22:00:51.931Z,62.80
2018-09-02T22:03:20.231Z,62.90
2018-09-02T22:05:48.498Z,62.90
2018-09-02T22:08:16.787Z,63.10
2018-09-02T22:10:45.084Z,63.10
2018-09-02T22:13:13.740Z,63.30
2018-09-02T22:15:42.045Z,63.40
2018-09-02T22:18:10.363Z,63.30
2018-09-02T22:20:38.634Z,63.40
2018-09-02T22:23:07.036Z,63.50
2018-09-02T22:25:35.425Z,63.50
2018-09-02T22:30:54.319Z,63.70
2018-09-02T22:33:22.654Z,63.80
2018-09-02T22:35:50.979Z,64.30
2018-09-02T22:38:19.256Z,64.00
2018-09-02T22:40:47.564Z,64.40
2018-09-02T22:43:16.085Z,64.20
2018-09-02T22:45:44.394Z,64.20
2018-09-02T22:48:12.695Z,64.50
2018-09-02T22:50:40.971Z,64.50
2018-09-02T22:53:18.028Z,64.70
2018-09-02T22:55:46.394Z,64.70
2018-09-02T22:58:14.678Z,64.90
2018-09-02T23:00:42.975Z,64.80
2018-09-02T23:03:11.258Z,64.90
2018-09-02T23:05:39.523Z,64.90
2018-09-02T23:08:07.860Z,65.00
2018-09-02T23:10:36.171Z,65.20
2018-09-02T23:13:04.547Z,65.10
2018-09-02T23:15:33.299Z,65.20
2018-09-02T23:18:01.640Z,65.30
2018-09-02T23:20:29.955Z,65.30
2018-09-02T23:22:58.279Z,65.40
2018-09-02T23:25:26.604Z,65.40
2018-09-02T23:27:54.911Z,65.70
2018-09-02T23:30:23.207Z,65.70
2018-09-02T23:32:51.873Z,65.90
2018-09-02T23:35:20.448Z,65.70
2018-09-02T23:37:48.743Z,65.80
2018-09-02T23:40:17.097Z,65.90
2018-09-02T23:42:51.302Z,65.90
2018-09-02T23:45:19.618Z,66.00
